Cortland, New York
Current Conditions -  °F | °C
As of 10:55 AM on Friday 19 Dec 2014 (Local Time) from KN03 Reporting Station
Light Snow Light Snow  
Wind Chill: 21°   Ceiling: 1700
Heat Index: 27°   Visibility: 1.5mi
Dew Point: 23°   Wind: 5mph
Humidity: 86%   Direction: 290°WNW
Pressure: 30.11"   Gusts: NA
Location:  42.6°N, 76.17°W
Report Text: KN03 191555Z AUTO 29004KT 1 1/2SM -SN BKN017 OVC024 M03/M05 A3011 RMK AO2
Loading
Personal Weather Stations






























Interactive Weather Map New forecast layout! Learn more

10-Day Weather Forecast

Advertisements
Track Severe Weather on mobile